Time;durP1;ratioP1;P1;durP2;ratioP2;P2;SDS_P1;SDS_P2;PMS_P1;PMS_P2;Temp;Humidity;BMP_temperature;BMP_pressure;BME280_temperature;BME280_humidity;BME280_pressure;Samples;Min_cycle;Max_cycle;Signal;HPM_P1;HPM_P2
2021/10/29 00:00:15;;;;;;;13.85;7.00;;;12.90;89.40;;;10.93;90.46;100109.47;5002441;28;20401;-85
2021/10/29 00:03:03;;;;;;;12.45;7.00;;;12.90;89.60;;;10.92;90.33;100115.94;4991116;28;20038;-85
2021/10/29 00:05:30;;;;;;;11.95;6.38;;;13.00;89.50;;;10.93;90.84;100104.03;4997203;28;20172;-85
2021/10/29 00:07:57;;;;;;;10.35;6.70;;;13.00;89.30;;;10.90;91.03;100115.31;5010765;28;20498;-85
2021/10/29 00:10:26;;;;;;;11.32;7.10;;;13.00;89.50;;;10.90;90.58;100115.31;5009387;28;20081;-85
2021/10/29 00:12:54;;;;;;;12.10;6.70;;;13.00;89.30;;;10.90;90.38;100115.31;5010997;28;20073;-88
2021/10/29 00:15:21;;;;;;;12.45;7.28;;;13.00;89.50;;;10.86;90.75;100113.19;5010279;28;20129;-87
2021/10/29 00:17:49;;;;;;;12.55;6.75;;;13.00;89.50;;;10.82;90.39;100118.19;4991023;28;20074;-87
2021/10/29 00:20:17;;;;;;;14.98;7.47;;;13.00;89.30;;;10.84;89.88;100121.53;4991491;28;20125;-87
2021/10/29 00:22:45;;;;;;;13.77;7.15;;;12.90;88.50;;;10.87;90.23;100121.16;4991312;28;20039;-85
2021/10/29 00:25:13;;;;;;;15.05;6.40;;;12.90;89.20;;;10.86;90.20;100126.81;4991207;28;20042;-88
2021/10/29 00:27:40;;;;;;;12.32;6.00;;;12.90;89.20;;;10.86;90.29;100124.06;4991196;28;20149;-87
2021/10/29 00:30:09;;;;;;;13.82;7.50;;;12.90;89.40;;;10.84;90.11;100129.72;4999911;28;20053;-85
2021/10/29 00:32:36;;;;;;;13.40;7.25;;;12.90;89.00;;;10.86;90.47;100130.34;5009933;28;20108;-86
2021/10/29 00:35:05;;;;;;;11.73;6.20;;;12.90;89.20;;;10.90;89.72;100126.19;5010756;28;20052;-87
2021/10/29 00:37:38;;;;;;;14.65;7.07;;;12.90;88.90;;;10.93;89.81;100130.44;4992605;28;20050;-87
2021/10/29 00:40:08;;;;;;;11.20;6.68;;;12.90;89.20;;;10.94;89.82;100123.94;5018431;28;20045;-87
2021/10/29 00:42:35;;;;;;;11.05;6.22;;;12.90;89.00;;;10.93;90.10;100127.72;5012426;28;20699;-87
2021/10/29 00:45:03;;;;;;;16.25;6.55;;;12.90;89.20;;;10.91;90.05;100122.44;5030099;28;20041;-87
2021/10/29 00:47:31;;;;;;;10.57;6.60;;;12.90;89.20;;;10.91;90.22;100122.44;5014516;28;20054;-87
2021/10/29 00:49:58;;;;;;;10.32;5.70;;;12.90;89.20;;;10.89;90.34;100121.81;4990859;28;20074;-85
2021/10/29 00:52:26;;;;;;;11.93;6.03;;;13.00;89.30;;;10.88;90.90;100122.00;4990818;28;20046;-87
2021/10/29 00:54:56;;;;;;;12.57;6.22;;;13.00;89.20;;;10.87;90.48;100114.84;4990685;28;20046;-85
2021/10/29 00:57:23;;;;;;;14.90;6.35;;;13.00;89.10;;;10.86;90.64;100122.19;4990484;28;20046;-85
2021/10/29 00:59:51;;;;;;;13.65;6.18;;;13.00;89.30;;;10.86;90.57;100124.91;4990577;28;20050;-85
2021/10/29 01:02:18;;;;;;;12.40;5.90;;;13.00;89.20;;;10.84;90.08;100124.28;4972869;28;20518;-85
2021/10/29 01:04:45;;;;;;;11.82;5.60;;;13.00;89.20;;;10.83;90.70;100119.00;4994095;28;20034;-87
2021/10/29 01:07:13;;;;;;;11.02;6.40;;;13.00;89.10;;;10.82;90.59;100123.63;5009973;28;20075;-87
2021/10/29 01:09:40;;;;;;;10.95;5.70;;;13.00;88.80;;;10.85;90.34;100131.41;5009918;28;20050;-85
2021/10/29 01:12:10;;;;;;;8.48;5.32;;;13.00;89.00;;;10.86;90.21;100135.81;5009920;28;20073;-85
2021/10/29 01:14:37;;;;;;;10.10;5.47;;;13.00;89.20;;;10.87;90.47;100126.59;5008872;28;20125;-85
2021/10/29 01:17:05;;;;;;;11.82;5.70;;;13.00;89.20;;;10.86;90.56;100126.81;5008267;28;20084;-85
2021/10/29 01:19:34;;;;;;;10.52;5.45;;;13.00;89.30;;;10.83;90.57;100125.28;5009688;28;20410;-85
2021/10/29 01:22:04;;;;;;;10.63;5.22;;;13.00;89.30;;;10.86;90.26;100124.06;5008211;28;20045;-87
2021/10/29 01:24:31;;;;;;;11.77;5.75;;;13.00;89.30;;;10.85;90.54;100127.81;4990137;28;20074;-87
2021/10/29 01:26:58;;;;;;;12.25;6.13;;;12.90;89.20;;;10.85;90.55;100125.97;4990248;28;20061;-88
2021/10/29 01:29:26;;;;;;;10.18;6.10;;;13.00;89.40;;;10.82;90.77;100129.06;4989836;28;20133;-88
2021/10/29 01:31:53;;;;;;;12.35;5.63;;;13.00;89.40;;;10.81;90.88;100121.09;4990088;28;20133;-85
2021/10/29 01:34:20;;;;;;;10.10;5.78;;;13.00;89.30;;;10.82;90.88;100118.19;4989921;28;20121;-85
2021/10/29 01:36:47;;;;;;;13.30;5.95;;;12.90;89.40;;;10.82;91.00;100109.19;4990071;28;20117;-85
2021/10/29 01:39:19;;;;;;;12.60;5.80;;;12.90;89.20;;;10.78;90.77;100103.28;4989582;28;20570;-85
2021/10/29 01:41:46;;;;;;;11.75;5.78;;;12.90;89.40;;;10.82;90.61;100106.47;4989974;28;20050;-85
2021/10/29 01:44:13;;;;;;;10.52;5.57;;;12.90;89.30;;;10.79;90.79;100096.78;4989731;28;20048;-85
2021/10/29 01:46:41;;;;;;;10.18;5.70;;;12.90;89.20;;;10.81;90.94;100100.16;4989654;28;20085;-85
2021/10/29 01:49:08;;;;;;;9.98;5.93;;;12.90;89.30;;;10.81;90.50;100089.25;4989578;28;20049;-85
2021/10/29 01:51:36;;;;;;;10.75;5.93;;;12.90;89.60;;;10.82;90.87;100085.50;4989137;28;20503;-85
2021/10/29 01:54:03;;;;;;;10.35;5.68;;;12.90;89.50;;;10.78;90.91;100089.66;4988781;28;20053;-85
2021/10/29 01:56:32;;;;;;;9.70;5.60;;;12.90;89.50;;;10.76;90.78;100089.88;5000914;28;20131;-85
2021/10/29 01:59:00;;;;;;;11.63;5.55;;;12.90;89.40;;;10.74;90.78;100080.22;5008822;28;20046;-85
2021/10/29 02:01:27;;;;;;;8.70;5.05;;;12.90;89.30;;;10.77;90.84;100079.81;5007109;28;20077;-85
2021/10/29 02:03:55;;;;;;;11.43;5.47;;;12.90;89.40;;;10.84;90.62;100082.59;4990966;28;20068;-85
2021/10/29 02:06:22;;;;;;;10.63;5.75;;;12.90;89.40;;;10.87;90.45;100074.88;5009162;28;20124;-86
2021/10/29 02:08:50;;;;;;;9.35;5.28;;;12.90;89.60;;;10.86;90.30;100069.63;5008612;28;20593;-85
2021/10/29 02:11:17;;;;;;;11.27;5.45;;;12.90;89.40;;;10.88;90.12;100064.84;5005231;28;20044;-85
2021/10/29 02:13:46;;;;;;;12.38;5.95;;;12.90;89.30;;;10.87;90.01;100058.56;4989330;28;20133;-85
2021/10/29 02:16:13;;;;;;;10.23;5.72;;;12.90;89.20;;;10.88;89.99;100054.78;4989230;28;20042;-86
2021/10/29 02:18:40;;;;;;;9.60;4.97;;;12.90;89.40;;;10.86;89.88;100048.69;4989135;28;20418;-85
2021/10/29 02:21:08;;;;;;;10.48;5.97;;;12.90;89.50;;;10.85;90.16;100040.72;4989286;28;20128;-85
2021/10/29 02:23:35;;;;;;;8.68;5.57;;;12.90;89.10;;;10.88;89.83;100046.59;4989056;28;20092;-85
2021/10/29 02:26:02;;;;;;;12.43;5.55;;;12.90;89.20;;;10.88;89.66;100040.34;4988862;28;20177;-85
2021/10/29 02:28:30;;;;;;;10.10;5.38;;;12.90;89.10;;;10.91;89.52;100040.78;4988794;28;20132;-87
2021/10/29 02:30:58;;;;;;;9.27;5.30;;;12.90;89.20;;;10.99;88.59;100038.94;4989008;28;20047;-87
2021/10/29 02:33:26;;;;;;;12.88;5.97;;;12.90;88.60;;;10.97;88.52;100028.25;4989253;28;20070;-87
2021/10/29 02:35:53;;;;;;;11.68;6.53;;;13.00;88.80;;;10.95;89.44;100030.34;5005198;28;20069;-87
2021/10/29 02:38:20;;;;;;;9.52;5.20;;;13.00;88.80;;;10.95;88.97;100030.34;5008484;28;20077;-87
2021/10/29 02:40:48;;;;;;;10.73;6.25;;;13.00;88.60;;;10.95;88.86;100024.88;5008815;28;20042;-87
2021/10/29 02:43:15;;;;;;;12.68;5.68;;;13.00;88.90;;;10.95;89.09;100024.88;5011257;28;20522;-87
2021/10/29 02:45:42;;;;;;;11.20;5.63;;;13.00;88.80;;;10.93;89.17;100033.25;4997480;28;20058;-87
2021/10/29 02:48:11;;;;;;;8.77;5.53;;;13.00;88.90;;;10.90;89.44;100028.19;4988802;28;20043;-88
2021/10/29 02:50:39;;;;;;;8.35;4.90;;;13.00;88.80;;;10.87;89.42;100016.84;4989066;28;20057;-87
2021/10/29 02:53:08;;;;;;;11.23;5.63;;;13.00;88.90;;;10.92;88.96;100023.38;4988944;28;20121;-87
2021/10/29 02:55:35;;;;;;;9.38;5.05;;;13.00;88.50;;;10.91;89.13;100019.00;4989155;28;20044;-87
2021/10/29 02:58:04;;;;;;;10.70;5.53;;;13.00;88.50;;;10.91;89.25;100024.44;4988683;28;20130;-85
2021/10/29 03:00:31;;;;;;;10.68;5.07;;;13.00;88.60;;;10.87;89.46;100012.28;4990146;28;20038;-85
2021/10/29 03:02:59;;;;;;;9.68;5.18;;;13.00;88.70;;;10.88;89.47;100007.66;5008456;28;20042;-84
2021/10/29 03:05:28;;;;;;;8.50;5.22;;;13.00;88.70;;;10.87;89.69;100011.41;5008446;28;20057;-87
2021/10/29 03:07:56;;;;;;;9.55;5.75;;;13.00;88.80;;;10.87;89.52;100009.56;5007980;28;20084;-87
2021/10/29 03:10:23;;;;;;;10.52;5.22;;;13.00;88.60;;;10.88;89.75;100011.22;5008490;28;20041;-85
2021/10/29 03:12:50;;;;;;;10.05;5.28;;;13.00;88.80;;;10.86;89.16;100005.13;5008488;28;20084;-85
2021/10/29 03:15:18;;;;;;;11.55;5.97;;;13.00;88.50;;;10.84;89.75;100007.22;5008364;28;20038;-88
2021/10/29 03:17:45;;;;;;;8.82;5.55;;;13.00;88.80;;;10.84;90.00;100001.78;5007077;28;20050;-86
2021/10/29 03:20:12;;;;;;;9.93;5.07;;;12.90;88.80;;;10.84;90.07;99996.31;5008363;28;20510;-85
2021/10/29 03:22:41;;;;;;;10.93;5.82;;;12.90;88.90;;;10.84;89.29;99990.06;5008570;28;20128;-85
2021/10/29 03:25:10;;;;;;;9.43;5.60;;;13.00;88.90;;;10.83;89.59;99983.75;5008212;28;20070;-85
2021/10/29 03:27:37;;;;;;;10.38;5.43;;;13.00;88.70;;;10.83;89.64;99991.91;5007983;28;20061;-85
2021/10/29 03:30:06;;;;;;;9.95;5.13;;;13.00;88.90;;;10.84;89.57;99990.88;5008512;28;20045;-85
2021/10/29 03:32:33;;;;;;;9.88;5.57;;;12.90;88.70;;;10.90;89.06;99989.25;5001659;28;20042;-86
2021/10/29 03:35:02;;;;;;;12.50;5.90;;;12.90;88.50;;;10.95;89.17;99976.72;4988633;28;20047;-85
2021/10/29 03:40:21;;;;;;;10.82;5.13;;;13.00;88.80;;;10.95;88.40;99971.28;4991751;28;20782;-86
2021/10/29 03:42:55;;;;;;;9.05;4.95;;;13.00;88.40;;;10.98;89.20;99961.00;4974117;28;20442;-86
2021/10/29 03:45:23;;;;;;;9.00;5.10;;;13.00;88.80;;;10.99;89.09;99971.72;4974359;28;20050;-85
2021/10/29 03:47:53;;;;;;;10.55;5.10;;;13.00;88.80;;;10.98;89.14;99964.56;4991741;28;20042;-85
2021/10/29 03:50:23;;;;;;;11.25;5.00;;;13.00;88.90;;;10.98;88.46;99963.75;4991960;28;20064;-85
2021/10/29 03:52:55;;;;;;;10.37;5.40;;;13.00;88.80;;;10.99;89.28;99970.88;4992007;28;20042;-85
2021/10/29 03:55:27;;;;;;;13.07;5.25;;;13.00;88.90;;;10.99;88.87;99965.44;4991989;28;20042;-86
2021/10/29 03:57:54;;;;;;;10.70;4.97;;;13.00;88.30;;;11.02;88.72;99965.84;4991553;28;20046;-87
2021/10/29 04:00:28;;;;;;;10.05;5.38;;;13.00;88.60;;;11.09;88.28;99966.72;4991938;28;20053;-85
2021/10/29 04:02:59;;;;;;;8.95;4.65;;;13.10;88.70;;;11.11;88.22;99966.53;4991878;28;20061;-85
2021/10/29 04:05:27;;;;;;;11.30;5.53;;;13.10;88.70;;;11.10;88.06;99970.28;4997229;28;20076;-85
2021/10/29 04:07:55;;;;;;;7.43;4.97;;;13.10;88.30;;;11.10;87.65;99973.00;5010827;28;20050;-85
2021/10/29 04:10:26;;;;;;;13.80;6.15;;;13.10;88.30;;;11.10;87.94;99967.56;5011042;28;20548;-85
2021/10/29 04:12:54;;;;;;;8.77;5.03;;;13.00;88.20;;;11.11;88.27;99969.25;5010534;28;20104;-87
2021/10/29 04:15:22;;;;;;;8.38;4.68;;;13.10;88.40;;;11.10;87.92;99971.16;5013412;28;20048;-86
2021/10/29 04:17:50;;;;;;;11.65;4.78;;;13.10;88.30;;;11.10;87.79;99968.44;5010667;28;20107;-85
2021/10/29 04:20:18;;;;;;;12.20;5.60;;;13.10;88.40;;;11.09;87.65;99969.44;5010823;28;20124;-83
2021/10/29 04:22:46;;;;;;;9.57;4.78;;;13.10;88.30;;;11.10;88.15;99967.56;5009583;28;20524;-81
2021/10/29 04:25:13;;;;;;;9.77;5.20;;;13.10;88.30;;;11.11;87.62;99966.53;5010700;28;20100;-81
2021/10/29 04:27:45;;;;;;;12.48;5.15;;;13.10;88.00;;;11.13;87.62;99969.88;5010323;28;20116;-82
2021/10/29 04:30:16;;;;;;;10.63;4.78;;;13.10;88.20;;;11.15;87.34;99959.63;5010772;28;20041;-82
2021/10/29 04:32:44;;;;;;;;;;;13.10;88.10;;;11.13;87.55;99965.28;5011106;28;20053;-84
2021/10/29 04:35:12;;;;;;;11.57;5.50;;;13.10;88.20;;;11.14;87.54;99960.69;5010628;28;20008;-82
2021/10/29 04:37:41;;;;;;;12.98;5.28;;;13.10;88.20;;;11.14;87.38;99949.81;5010277;28;20136;-83
2021/10/29 04:40:10;;;;;;;9.52;4.90;;;13.10;87.70;;;11.13;87.82;99954.38;5006695;28;20053;-83
2021/10/29 04:42:38;;;;;;;9.77;5.22;;;13.20;88.30;;;11.13;88.12;99961.72;4990951;28;20038;-83
2021/10/29 04:45:09;;;;;;;10.93;5.47;;;13.10;88.10;;;11.15;87.41;99952.28;4991444;28;20069;-82
2021/10/29 04:47:37;;;;;;;10.52;5.32;;;13.10;87.90;;;11.15;87.11;99951.47;4992967;28;20045;-83
2021/10/29 04:50:06;;;;;;;11.07;5.35;;;13.20;87.60;;;11.17;87.16;99945.81;5009627;28;20081;-82
2021/10/29 04:52:33;;;;;;;8.23;4.90;;;13.20;87.90;;;11.18;87.45;99953.78;5009824;28;20133;-83
2021/10/29 04:55:00;;;;;;;12.18;5.28;;;13.20;87.90;;;11.14;86.58;99944.34;5008827;28;20073;-83
2021/10/29 04:57:28;;;;;;;14.90;5.88;;;13.10;87.20;;;11.19;86.60;99939.13;5008494;28;20520;-83
2021/10/29 04:59:57;;;;;;;10.88;5.70;;;13.20;86.90;;;11.21;86.87;99942.47;5008259;28;20061;-82
2021/10/29 05:02:26;;;;;;;13.30;5.45;;;13.20;87.50;;;11.18;87.27;99940.19;5008927;28;20096;-82
2021/10/29 05:04:53;;;;;;;14.63;5.60;;;13.20;87.70;;;11.16;87.63;99945.00;5009191;28;20037;-83
2021/10/29 05:07:20;;;;;;;10.07;5.60;;;13.20;87.60;;;11.13;87.51;99929.03;5009905;28;20092;-83
2021/10/29 05:09:47;;;;;;;11.27;5.80;;;13.20;87.60;;;11.13;87.65;99934.50;5009608;28;20053;-83
2021/10/29 05:12:15;;;;;;;10.55;5.50;;;13.20;87.70;;;11.07;87.94;99940.75;5010189;28;20102;-82
2021/10/29 05:14:42;;;;;;;12.90;5.20;;;13.20;87.70;;;11.09;88.41;99930.50;5009806;28;20041;-81
2021/10/29 05:17:09;;;;;;;10.32;5.22;;;13.20;87.90;;;11.11;87.71;99928.41;5009066;28;20049;-81
2021/10/29 05:19:38;;;;;;;9.40;5.03;;;13.20;87.60;;;11.11;87.97;99921.06;5009806;28;20466;-80
2021/10/29 05:22:06;;;;;;;11.15;5.05;;;13.20;87.80;;;11.12;87.97;99920.03;5009971;28;20522;-80
2021/10/29 05:24:33;;;;;;;12.13;5.00;;;13.20;87.80;;;11.13;86.82;99913.53;4992079;28;20053;-80
2021/10/29 05:27:00;;;;;;;10.85;4.93;;;13.20;87.40;;;11.19;87.01;99911.03;5020286;28;20046;-81
2021/10/29 05:29:28;;;;;;;8.90;4.93;;;13.20;87.40;;;11.20;86.84;99913.56;5013255;28;20037;-81
2021/10/29 05:32:00;;;;;;;10.55;5.20;;;13.20;87.70;;;11.19;87.29;99917.31;5010858;28;20053;-80
2021/10/29 05:34:27;;;;;;;12.35;4.55;;;13.20;87.30;;;11.17;87.12;99913.97;5009197;28;20581;-81
2021/10/29 05:36:56;;;;;;;12.65;4.90;;;13.20;87.50;;;11.17;87.09;99911.25;5011423;28;20146;-81
2021/10/29 05:39:24;;;;;;;9.27;4.15;;;13.20;87.60;;;11.18;86.93;99915.66;5019286;28;20109;-81
2021/10/29 05:41:52;;;;;;;8.40;4.75;;;13.20;87.70;;;11.19;86.64;99911.03;5009442;28;20050;-81
2021/10/29 05:44:20;;;;;;;10.40;5.38;;;13.20;87.50;;;11.17;86.73;99913.97;5009183;28;20225;-81
2021/10/29 05:46:48;;;;;;;12.18;4.75;;;13.20;87.50;;;11.16;87.06;99915.03;5009833;28;20420;-81
2021/10/29 05:49:16;;;;;;;11.07;5.13;;;13.20;87.50;;;11.14;86.46;99915.22;4999284;28;20042;-81
2021/10/29 05:51:46;;;;;;;8.63;4.78;;;13.20;87.00;;;11.18;87.14;99915.66;4993280;28;20057;-82
2021/10/29 05:56:59;;;;;;;9.75;5.45;;;13.20;87.20;;;11.15;85.90;99906.00;5032593;22;20464;-81
2021/10/29 05:59:26;;;;;;;10.13;4.72;;;13.20;86.90;;;11.20;86.16;99913.56;5068184;28;20480;-81
2021/10/29 06:01:54;;;;;;;10.00;4.82;;;13.20;87.10;;;11.19;86.24;99913.78;5080255;28;20497;-81
2021/10/29 06:04:21;;;;;;;15.75;5.03;;;13.20;87.30;;;11.18;86.02;99915.66;5065898;28;20123;-81
2021/10/29 06:06:48;;;;;;;9.05;4.95;;;13.20;86.90;;;11.19;86.43;99919.22;5062062;28;20479;-81
2021/10/29 06:09:17;;;;;;;16.95;4.75;;;13.20;87.20;;;11.20;86.48;99912.75;5064419;28;20113;-81
2021/10/29 06:11:44;;;;;;;12.13;4.85;;;13.20;86.90;;;11.13;86.86;99918.97;5068493;28;20068;-81
2021/10/29 06:14:14;;;;;;;9.18;4.47;;;13.20;87.10;;;11.11;87.08;99912.06;5067099;28;20048;-81
2021/10/29 06:16:41;;;;;;;10.07;5.32;;;13.20;87.10;;;11.07;86.93;99910.78;5068479;28;20250;-81
2021/10/29 06:19:08;;;;;;;7.00;4.15;;;13.20;87.20;;;11.07;86.80;99916.25;5067774;28;20059;-81
2021/10/29 06:21:40;;;;;;;11.27;5.13;;;13.20;87.10;;;11.07;87.28;99908.06;5069387;28;20378;-81
2021/10/29 06:24:10;;;;;;;11.02;4.60;;;13.20;87.30;;;11.09;86.66;99909.53;5051521;28;20049;-81
2021/10/29 06:26:43;;;;;;;11.00;5.07;;;13.10;86.60;;;11.14;86.81;99909.78;5068228;28;20525;-82
2021/10/29 06:29:10;;;;;;;9.40;4.88;;;13.10;87.00;;;11.14;86.38;99908.94;5068044;28;20044;-80
2021/10/29 06:31:38;;;;;;;10.02;4.55;;;13.10;87.40;;;11.17;86.67;99910.41;5068397;28;20078;-80
2021/10/29 06:34:05;;;;;;;8.93;4.82;;;13.20;87.40;;;11.16;86.76;99906.84;5066425;28;20454;-80
2021/10/29 06:36:32;;;;;;;8.45;4.28;;;13.20;87.30;;;11.22;85.29;99903.31;5067718;28;20029;-80
2021/10/29 06:39:01;;;;;;;10.15;4.55;;;13.20;86.50;;;11.26;86.03;99901.84;5066831;28;20519;-80
2021/10/29 06:41:28;;;;;;;9.52;4.47;;;13.20;87.10;;;11.26;85.68;99904.59;5068415;28;20048;-80
2021/10/29 06:44:10;;;;;;;10.50;4.55;;;13.20;87.10;;;11.30;85.33;99902.28;5066705;28;20048;-80
2021/10/29 06:46:43;;;;;;;;;;;13.20;87.00;;;11.32;84.96;99909.19;5068585;28;20067;-80
2021/10/29 06:49:16;;;;;;;8.52;4.45;;;13.20;86.80;;;11.34;85.76;99909.00;5068122;28;19932;-80
2021/10/29 06:52:19;;;;;;;8.43;4.47;;;13.20;86.80;;;11.34;85.29;99903.56;5067629;28;20056;-81
2021/10/29 07:00:20;;;;;;;9.23;4.22;;;13.30;86.10;;;11.40;85.21;99907.34;5068283;28;20044;-82
2021/10/29 07:41:19;;;;;;;12.07;5.25;;;13.40;87.00;;;11.56;85.54;99909.72;5070223;28;20054;-80
2021/10/29 07:43:49;;;;;;;13.75;6.25;;;13.40;86.80;;;11.54;85.53;99903.63;5070541;28;20133;-80
2021/10/29 07:46:17;;;;;;;12.48;6.00;;;13.40;86.50;;;11.64;85.30;99919.56;5068845;28;20509;-80
2021/10/29 07:48:47;;;;;;;14.90;6.03;;;13.40;86.80;;;11.73;84.30;99912.91;5070991;28;20049;-80
2021/10/29 07:51:16;;;;;;;12.38;5.68;;;13.40;87.00;;;11.80;84.64;99907.44;5069677;28;20049;-80
2021/10/29 07:53:45;;;;;;;10.50;5.68;;;13.50;86.80;;;11.85;84.78;99913.94;5056535;28;20443;-80
2021/10/29 07:56:13;;;;;;;14.10;5.93;;;13.50;87.00;;;11.89;84.77;99907.06;5063433;28;20051;-80
2021/10/29 07:58:40;;;;;;;9.70;5.68;;;13.50;87.10;;;11.96;84.75;99908.97;5064785;28;20123;-80
2021/10/29 08:01:08;;;;;;;10.10;5.43;;;13.60;86.90;;;12.02;83.83;99908.97;5057485;28;20123;-80
2021/10/29 08:03:36;;;;;;;9.77;5.68;;;13.60;87.00;;;12.07;84.07;99903.72;5058601;28;20054;-80
2021/10/29 08:06:04;;;;;;;11.05;5.78;;;13.70;86.70;;;12.08;83.82;99904.56;5059638;28;20072;-80
2021/10/29 08:08:32;;;;;;;10.57;5.78;;;13.70;86.90;;;12.10;83.44;99919.66;5058160;28;20073;-80
2021/10/29 08:10:59;;;;;;;12.02;6.22;;;13.70;86.70;;;12.11;83.87;99913.16;5064440;28;20143;-80
2021/10/29 08:13:27;;;;;;;12.75;6.40;;;13.80;86.70;;;12.15;84.13;99913.59;5055205;28;20787;-81
2021/10/29 08:15:58;;;;;;;10.93;5.32;;;13.80;86.80;;;12.19;83.70;99916.75;5060383;28;20055;-80
2021/10/29 08:18:26;;;;;;;11.40;6.13;;;13.80;86.70;;;12.22;83.65;99921.75;5062343;28;20040;-80
2021/10/29 08:20:54;;;;;;;13.73;6.45;;;13.80;86.40;;;12.25;83.51;99921.34;5059819;28;20040;-80
2021/10/29 08:23:23;;;;;;;14.32;6.70;;;13.80;86.50;;;12.31;82.65;99921.31;5062194;28;20138;-80
2021/10/29 08:25:51;;;;;;;12.27;6.78;;;13.80;86.10;;;12.36;83.14;99917.97;5059900;28;20036;-80
2021/10/29 08:28:18;;;;;;;12.98;6.20;;;13.90;86.40;;;12.42;82.14;99927.22;5063531;28;20127;-80
2021/10/29 08:30:45;;;;;;;11.05;6.50;;;13.90;85.80;;;12.44;82.55;99922.38;5070209;28;20199;-80
2021/10/29 08:33:12;;;;;;;10.43;5.88;;;14.00;86.20;;;12.46;81.70;99920.28;5069859;28;20052;-80
2021/10/29 08:35:40;;;;;;;11.95;6.40;;;14.00;85.30;;;12.44;82.17;99925.94;5058386;28;20084;-81
2021/10/29 08:38:07;;;;;;;13.10;5.93;;;14.00;85.90;;;12.42;82.50;99928.03;5048594;28;20436;-81
2021/10/29 08:40:36;;;;;;;9.45;6.15;;;14.00;85.80;;;12.43;82.69;99924.28;5050332;28;20083;-80
2021/10/29 08:43:04;;;;;;;15.93;7.03;;;14.00;85.90;;;12.44;82.96;99923.22;5050290;28;20100;-80
2021/10/29 08:45:31;;;;;;;11.60;6.20;;;14.00;85.50;;;12.45;82.67;99929.50;5068476;28;20080;-80
2021/10/29 08:48:01;;;;;;;12.43;6.32;;;14.10;85.80;;;12.47;81.98;99917.34;5069257;28;20055;-80
2021/10/29 08:50:28;;;;;;;14.95;7.03;;;14.10;85.30;;;12.45;81.75;99922.19;5070145;28;20051;-80
2021/10/29 08:52:55;;;;;;;11.85;6.05;;;14.10;85.50;;;12.44;82.56;99917.75;5070214;28;20516;-80
2021/10/29 08:55:26;;;;;;;12.13;5.80;;;14.10;85.60;;;12.47;82.20;99920.06;5067985;28;20075;-80
2021/10/29 08:57:56;;;;;;;12.90;5.70;;;14.10;85.40;;;12.49;81.56;99915.25;5069197;28;20040;-80
2021/10/29 09:00:29;;;;;;;12.45;6.28;;;14.10;84.80;;;12.56;82.04;99912.50;5069822;28;20055;-80
2021/10/29 09:03:09;;;;;;;11.38;6.13;;;14.10;85.00;;;12.64;81.40;99914.16;5065722;28;20041;-80
2021/10/29 09:05:45;;;;;;;12.70;6.05;;;14.20;85.30;;;12.68;82.41;99913.53;5065422;28;20043;-80
2021/10/29 09:08:22;;;;;;;11.63;6.07;;;14.20;85.60;;;12.80;81.22;99908.25;5057982;28;20564;-80
2021/10/29 09:31:30;;;;;;;13.77;5.38;;;14.60;85.20;;;13.20;80.77;99880.78;5063754;28;20041;-81
2021/10/29 09:34:05;;;;;;;12.82;5.88;;;14.70;85.10;;;13.20;80.42;99871.75;5066231;28;20554;-81
2021/10/29 09:36:39;;;;;;;11.85;5.45;;;14.70;84.40;;;13.22;79.45;99881.41;5065222;28;20086;-81
2021/10/29 09:39:10;;;;;;;11.10;5.20;;;14.70;83.90;;;13.25;79.33;99861.84;5065317;28;20041;-81
2021/10/29 09:42:05;;;;;;;10.88;5.13;;;14.70;84.30;;;13.24;80.31;99868.34;5064132;28;20505;-81
2021/10/29 09:44:44;;;;;;;8.20;4.78;;;14.80;84.30;;;13.26;80.65;99852.56;5061212;28;20513;-81
2021/10/29 09:47:14;;;;;;;9.65;4.75;;;14.80;84.60;;;13.33;80.99;99857.19;5063795;28;20390;-82
2021/10/29 09:49:52;;;;;;;9.85;4.80;;;14.80;84.80;;;13.35;80.72;99861.41;5065039;28;20041;-81
2021/10/29 09:52:47;;;;;;;7.55;4.75;;;14.90;84.40;;;13.39;80.61;99859.91;5064789;28;20064;-81
2021/10/29 09:55:22;;;;;;;8.00;4.70;;;14.90;84.50;;;13.42;80.09;99845.81;5050210;28;20077;-81
2021/10/29 09:57:50;;;;;;;9.13;5.05;;;15.00;84.20;;;13.43;79.92;99844.72;5044961;28;20037;-81
2021/10/29 10:00:17;;;;;;;8.18;4.80;;;15.00;84.00;;;13.43;80.00;99847.47;5064782;28;20049;-81
2021/10/29 10:02:46;;;;;;;9.70;4.93;;;15.00;83.90;;;13.47;79.98;99847.88;5063212;28;20425;-81
2021/10/29 10:05:17;;;;;;;10.50;5.07;;;15.00;84.10;;;13.50;79.61;99850.19;5063345;28;20040;-81
2021/10/29 10:07:47;;;;;;;11.75;5.43;;;15.10;83.60;;;13.53;79.24;99851.63;5063163;28;20420;-82
2021/10/29 10:10:15;;;;;;;7.80;5.13;;;15.10;83.80;;;13.52;79.78;99855.41;5064347;28;20053;-81
2021/10/29 10:12:46;;;;;;;11.32;5.40;;;15.10;83.70;;;13.51;79.53;99838.16;5064461;28;20048;-81
2021/10/29 10:15:14;;;;;;;13.30;5.93;;;15.10;83.60;;;13.53;79.32;99837.94;5064169;28;20041;-81
2021/10/29 10:17:43;;;;;;;14.50;5.80;;;15.10;83.50;;;13.54;79.86;99829.53;5064167;28;20044;-81
2021/10/29 10:20:11;;;;;;;12.38;5.40;;;15.10;83.60;;;13.55;79.54;99839.38;5063425;28;20044;-81
2021/10/29 10:22:41;;;;;;;9.88;5.40;;;15.20;83.40;;;13.57;79.65;99841.91;5064361;28;20542;-81
2021/10/29 10:25:17;;;;;;;11.52;5.65;;;15.20;83.20;;;13.61;79.77;99833.06;5065443;28;20059;-81
2021/10/29 10:31:03;;;;;;;8.93;5.13;;;15.20;83.30;;;13.65;78.67;99825.22;5031946;28;20078;-81
2021/10/29 10:45:17;;;;;;;8.95;5.20;;;15.30;82.70;;;13.67;78.40;99799.34;5050076;28;20049;-81
2021/10/29 10:47:50;;;;;;;;;;;15.20;82.40;;;13.74;77.96;99793.81;5051181;28;20052;-81
2021/10/29 10:50:19;;;;;;;8.85;4.80;;;15.30;82.60;;;13.80;77.13;99805.75;5050953;28;19924;-81
2021/10/29 10:53:41;;;;;;;8.77;4.68;;;15.30;82.00;;;13.95;77.69;99795.31;5051058;28;20152;-81
2021/10/29 10:56:18;;;;;;;8.90;5.15;;;15.30;82.70;;;13.99;76.96;99795.72;5048621;28;20071;-81
2021/10/29 10:59:03;;;;;;;10.15;5.22;;;15.30;82.30;;;13.99;76.65;99796.56;5049789;28;20405;-81
2021/10/29 11:02:06;;;;;;;9.43;4.88;;;15.40;82.10;;;14.01;76.65;99793.56;5050549;28;20056;-81
2021/10/29 11:04:51;;;;;;;8.32;5.32;;;15.40;81.80;;;14.00;76.10;99781.81;5051056;28;20052;-81
2021/10/29 11:10:23;;;;;;;11.18;4.68;;;15.40;82.20;;;14.03;76.60;99775.91;5015486;28;20049;-81
2021/10/29 11:13:11;;;;;;;9.40;5.05;;;15.40;81.70;;;14.08;76.78;99767.00;5050418;28;20505;-81
2021/10/29 11:15:41;;;;;;;7.95;4.70;;;15.50;82.00;;;14.11;76.94;99776.66;5051010;28;20136;-82
2021/10/29 11:18:33;;;;;;;8.68;4.80;;;15.50;82.10;;;14.13;76.76;99763.59;5049827;28;20557;-82
2021/10/29 11:21:20;;;;;;;10.50;5.03;;;15.60;82.30;;;14.21;76.92;99764.13;5048193;28;20037;-82
2021/10/29 11:24:08;;;;;;;9.95;4.85;;;15.60;82.00;;;14.28;76.46;99753.94;5048051;28;20073;-82
2021/10/29 11:26:40;;;;;;;10.65;4.75;;;15.70;82.10;;;14.35;75.76;99761.25;5049523;28;20053;-82
2021/10/29 11:29:09;;;;;;;10.63;4.43;;;15.70;81.60;;;14.37;75.95;99759.94;5049843;28;20094;-82
2021/10/29 11:31:44;;;;;;;9.48;4.30;;;15.70;81.70;;;14.33;76.08;99757.91;5048588;28;20052;-83
2021/10/29 11:34:16;;;;;;;8.18;4.72;;;15.70;81.60;;;14.28;75.16;99744.91;5048704;28;20041;-83
2021/10/29 11:36:45;;;;;;;;;;;15.70;81.10;;;14.26;75.02;99741.56;5049459;28;20501;-83
2021/10/29 11:39:15;;;;;;;9.73;4.43;;;15.70;81.00;;;14.24;75.76;99744.53;5048123;28;20381;-83
2021/10/29 11:41:46;;;;;;;8.38;4.30;;;15.70;81.20;;;14.22;75.51;99740.31;5048847;28;20056;-83
2021/10/29 11:44:16;;;;;;;7.38;4.35;;;15.80;81.20;;;14.17;76.00;99727.34;5050365;28;20045;-83
2021/10/29 11:46:48;;;;;;;11.35;5.07;;;15.80;81.00;;;14.15;75.80;99729.47;5049635;28;20049;-83
2021/10/29 11:49:18;;;;;;;8.77;4.45;;;15.80;81.00;;;14.14;75.85;99727.78;5049483;28;20049;-83
2021/10/29 11:51:46;;;;;;;9.88;4.63;;;15.80;80.90;;;14.12;76.15;99718.97;5049251;28;20049;-83